sensor_id;sensor_type;location;lat;lon;timestamp;pressure;altitude;pressure_sealevel;temperature;humidity
43312;BME280;30041;48.300;16.352;2024-03-06T00:01:02;99783.47;;;22.47;42.68
43312;BME280;30041;48.300;16.352;2024-03-06T00:03:28;99784.56;;;22.46;42.80
43312;BME280;30041;48.300;16.352;2024-03-06T00:05:54;99780.19;;;22.45;42.56
43312;BME280;30041;48.300;16.352;2024-03-06T00:08:20;99789.97;;;22.46;42.56
43312;BME280;30041;48.300;16.352;2024-03-06T00:10:46;99789.97;;;22.46;42.54
43312;BME280;30041;48.300;16.352;2024-03-06T00:13:12;99796.16;;;22.47;42.76
43312;BME280;30041;48.300;16.352;2024-03-06T00:15:39;99795.34;;;22.46;42.68
43312;BME280;30041;48.300;16.352;2024-03-06T00:18:05;99794.50;;;22.46;42.56
43312;BME280;30041;48.300;16.352;2024-03-06T00:20:31;99794.50;;;22.46;42.55
43312;BME280;30041;48.300;16.352;2024-03-06T00:22:57;99796.97;;;22.47;42.83
43312;BME280;30041;48.300;16.352;2024-03-06T00:25:23;99795.09;;;22.48;42.65
43312;BME280;30041;48.300;16.352;2024-03-06T00:27:49;99798.88;;;22.47;42.67
43312;BME280;30041;48.300;16.352;2024-03-06T00:30:15;99799.69;;;22.47;42.54
43312;BME280;30041;48.300;16.352;2024-03-06T00:32:41;99795.34;;;22.46;42.49
43312;BME280;30041;48.300;16.352;2024-03-06T00:35:08;99803.47;;;22.46;42.54
43312;BME280;30041;48.300;16.352;2024-03-06T00:37:52;99797.22;;;22.46;42.55
43312;BME280;30041;48.300;16.352;2024-03-06T00:40:18;99804.28;;;22.47;42.74
43312;BME280;30041;48.300;16.352;2024-03-06T00:42:44;99808.84;;;22.46;42.74
43312;BME280;30041;48.300;16.352;2024-03-06T00:45:10;99810.72;;;22.46;42.73
43312;BME280;30041;48.300;16.352;2024-03-06T00:47:37;99812.38;;;22.47;42.79
43312;BME280;30041;48.300;16.352;2024-03-06T00:50:03;99801.56;;;22.47;42.60
43312;BME280;30041;48.300;16.352;2024-03-06T00:52:29;99805.09;;;22.47;42.41
43312;BME280;30041;48.300;16.352;2024-03-06T00:54:55;99808.84;;;22.46;42.45
43312;BME280;30041;48.300;16.352;2024-03-06T00:57:21;99804.28;;;22.47;42.68
43312;BME280;30041;48.300;16.352;2024-03-06T00:59:47;99801.56;;;22.47;42.76
43312;BME280;30041;48.300;16.352;2024-03-06T01:02:13;99813.19;;;22.47;42.68
43312;BME280;30041;48.300;16.352;2024-03-06T01:04:40;99796.41;;;22.45;42.69
43312;BME280;30041;48.300;16.352;2024-03-06T01:07:06;99797.22;;;22.46;42.49
43312;BME280;30041;48.300;16.352;2024-03-06T01:09:32;99802.63;;;22.46;42.74
43312;BME280;30041;48.300;16.352;2024-03-06T01:11:58;99796.97;;;22.47;42.47
43312;BME280;30041;48.300;16.352;2024-03-06T01:14:24;99789.97;;;22.46;42.59
43312;BME280;30041;48.300;16.352;2024-03-06T01:16:56;99798.06;;;22.46;42.50
43312;BME280;30041;48.300;16.352;2024-03-06T01:19:23;99800.75;;;22.46;42.47
43312;BME280;30041;48.300;16.352;2024-03-06T01:21:49;99798.06;;;22.46;42.55
43312;BME280;30041;48.300;16.352;2024-03-06T01:24:15;99797.22;;;22.46;42.63
43312;BME280;30041;48.300;16.352;2024-03-06T01:26:41;99805.91;;;22.48;42.55
43312;BME280;30041;48.300;16.352;2024-03-06T01:29:09;99808.84;;;22.46;42.56
43312;BME280;30041;48.300;16.352;2024-03-06T01:31:35;99810.50;;;22.47;42.56
43312;BME280;30041;48.300;16.352;2024-03-06T01:34:02;99816.97;;;22.46;42.49
43312;BME280;30041;48.300;16.352;2024-03-06T01:36:28;99815.06;;;22.47;42.54
43312;BME280;30041;48.300;16.352;2024-03-06T01:38:56;99816.13;;;22.46;42.45
43312;BME280;30041;48.300;16.352;2024-03-06T01:41:22;99816.97;;;22.46;42.27
43312;BME280;30041;48.300;16.352;2024-03-06T01:43:48;99816.13;;;22.46;42.36
43312;BME280;30041;48.300;16.352;2024-03-06T01:46:14;99818.00;;;22.45;42.45
43312;BME280;30041;48.300;16.352;2024-03-06T01:48:40;99814.25;;;22.46;42.29
43312;BME280;30041;48.300;16.352;2024-03-06T01:51:09;99815.31;;;22.45;42.43
43312;BME280;30041;48.300;16.352;2024-03-06T01:53:35;99827.75;;;22.46;42.53
43312;BME280;30041;48.300;16.352;2024-03-06T01:56:03;99823.41;;;22.45;42.38
43312;BME280;30041;48.300;16.352;2024-03-06T01:58:29;99830.47;;;22.46;42.55
43312;BME280;30041;48.300;16.352;2024-03-06T02:00:58;99822.59;;;22.45;42.42
43312;BME280;30041;48.300;16.352;2024-03-06T02:03:25;99831.50;;;22.45;42.47
43312;BME280;30041;48.300;16.352;2024-03-06T02:05:51;99820.72;;;22.45;42.35
43312;BME280;30041;48.300;16.352;2024-03-06T02:08:18;99825.06;;;22.46;42.35
43312;BME280;30041;48.300;16.352;2024-03-06T02:10:45;99830.47;;;22.46;42.54
43312;BME280;30041;48.300;16.352;2024-03-06T02:13:12;99828.56;;;22.47;42.28
43312;BME280;30041;48.300;16.352;2024-03-06T02:15:38;99831.50;;;22.45;42.47
43312;BME280;30041;48.300;16.352;2024-03-06T02:18:07;99834.22;;;22.45;42.30
43312;BME280;30041;48.300;16.352;2024-03-06T02:20:33;99828.81;;;22.45;42.42
43312;BME280;30041;48.300;16.352;2024-03-06T02:23:02;99828.81;;;22.45;42.29
43312;BME280;30041;48.300;16.352;2024-03-06T02:25:28;99842.31;;;22.45;42.63
43312;BME280;30041;48.300;16.352;2024-03-06T02:27:55;99832.31;;;22.46;42.56
43312;BME280;30041;48.300;16.352;2024-03-06T02:30:21;99833.63;;;22.43;42.54
43312;BME280;30041;48.300;16.352;2024-03-06T02:32:47;99833.41;;;22.45;42.30
43312;BME280;30041;48.300;16.352;2024-03-06T02:35:12;99828.00;;;22.45;42.57
43312;BME280;30041;48.300;16.352;2024-03-06T02:37:38;99831.50;;;22.45;42.33
43312;BME280;30041;48.300;16.352;2024-03-06T02:40:07;99828.81;;;22.45;42.33
43312;BME280;30041;48.300;16.352;2024-03-06T02:42:33;99836.09;;;22.45;42.54
43312;BME280;30041;48.300;16.352;2024-03-06T02:44:59;99840.69;;;22.44;42.53
43312;BME280;30041;48.300;16.352;2024-03-06T02:47:25;99842.31;;;22.45;42.46
43312;BME280;30041;48.300;16.352;2024-03-06T02:49:51;99840.69;;;22.44;42.23
43312;BME280;30041;48.300;16.352;2024-03-06T02:52:20;99844.44;;;22.43;42.37
43312;BME280;30041;48.300;16.352;2024-03-06T02:54:46;99846.09;;;22.44;42.27
43312;BME280;30041;48.300;16.352;2024-03-06T02:57:12;99851.50;;;22.44;42.29
43312;BME280;30041;48.300;16.352;2024-03-06T02:59:39;99850.63;;;22.44;42.40
43312;BME280;30041;48.300;16.352;2024-03-06T03:02:05;99849.59;;;22.45;42.50
43312;BME280;30041;48.300;16.352;2024-03-06T03:04:31;99849.59;;;22.45;42.25
43312;BME280;30041;48.300;16.352;2024-03-06T03:06:58;99854.41;;;22.43;42.51
43312;BME280;30041;48.300;16.352;2024-03-06T03:09:24;99856.03;;;22.44;42.29
43312;BME280;30041;48.300;16.352;2024-03-06T03:11:50;99859.59;;;22.44;42.27
43312;BME280;30041;48.300;16.352;2024-03-06T03:14:18;99858.75;;;22.44;42.39
43312;BME280;30041;48.300;16.352;2024-03-06T03:16:47;99856.88;;;22.44;42.48
43312;BME280;30041;48.300;16.352;2024-03-06T03:19:13;99858.75;;;22.44;42.17
43312;BME280;30041;48.300;16.352;2024-03-06T03:21:44;99858.75;;;22.44;42.37
43312;BME280;30041;48.300;16.352;2024-03-06T03:24:10;99867.69;;;22.44;42.19
43312;BME280;30041;48.300;16.352;2024-03-06T03:26:36;99863.34;;;22.43;42.14
43312;BME280;30041;48.300;16.352;2024-03-06T03:29:02;99858.75;;;22.44;42.35
43312;BME280;30041;48.300;16.352;2024-03-06T03:31:28;99862.28;;;22.44;42.27
43312;BME280;30041;48.300;16.352;2024-03-06T03:33:54;99852.53;;;22.43;42.22
43312;BME280;30041;48.300;16.352;2024-03-06T03:36:20;99857.69;;;22.45;42.32
43312;BME280;30041;48.300;16.352;2024-03-06T03:38:46;99857.94;;;22.43;42.15
43312;BME280;30041;48.300;16.352;2024-03-06T03:41:12;99857.94;;;22.43;42.24
43312;BME280;30041;48.300;16.352;2024-03-06T03:43:40;99863.34;;;22.43;42.37
43312;BME280;30041;48.300;16.352;2024-03-06T03:46:06;99866.03;;;22.43;42.26
43312;BME280;30041;48.300;16.352;2024-03-06T03:48:32;99868.72;;;22.43;42.40
43312;BME280;30041;48.300;16.352;2024-03-06T03:50:58;99870.63;;;22.43;42.16
43312;BME280;30041;48.300;16.352;2024-03-06T03:53:23;99869.81;;;22.42;42.38
43312;BME280;30041;48.300;16.352;2024-03-06T03:55:50;99869.81;;;22.42;42.41
43312;BME280;30041;48.300;16.352;2024-03-06T03:58:16;99875.22;;;22.42;42.13
43312;BME280;30041;48.300;16.352;2024-03-06T04:00:42;99873.31;;;22.43;42.21
43312;BME280;30041;48.300;16.352;2024-03-06T04:03:11;99879.53;;;22.43;42.27
43312;BME280;30041;48.300;16.352;2024-03-06T04:05:37;99877.91;;;22.42;42.33
43312;BME280;30041;48.300;16.352;2024-03-06T04:08:03;99875.22;;;22.42;42.24
43312;BME280;30041;48.300;16.352;2024-03-06T04:10:30;99877.91;;;22.42;42.34
43312;BME280;30041;48.300;16.352;2024-03-06T04:12:56;99869.00;;;22.42;42.33
43312;BME280;30041;48.300;16.352;2024-03-06T04:15:22;99877.09;;;22.42;42.34
43312;BME280;30041;48.300;16.352;2024-03-06T04:17:48;99874.41;;;22.42;42.23
43312;BME280;30041;48.300;16.352;2024-03-06T04:20:14;99876.25;;;22.41;42.44
43312;BME280;30041;48.300;16.352;2024-03-06T04:22:40;99872.50;;;22.42;42.20
43312;BME280;30041;48.300;16.352;2024-03-06T04:25:06;99876.03;;;22.43;42.11
43312;BME280;30041;48.300;16.352;2024-03-06T04:27:32;99886.00;;;22.42;42.30
43312;BME280;30041;48.300;16.352;2024-03-06T04:30:01;99886.00;;;22.42;42.22
43312;BME280;30041;48.300;16.352;2024-03-06T04:32:27;99883.53;;;22.41;42.30
43312;BME280;30041;48.300;16.352;2024-03-06T04:34:53;99887.06;;;22.41;42.38
43312;BME280;30041;48.300;16.352;2024-03-06T04:37:19;99883.31;;;22.42;42.35
43312;BME280;30041;48.300;16.352;2024-03-06T04:39:45;99891.41;;;22.42;42.06
43312;BME280;30041;48.300;16.352;2024-03-06T04:42:11;99889.75;;;22.41;42.09
43312;BME280;30041;48.300;16.352;2024-03-06T04:44:37;99888.72;;;22.42;42.03
43312;BME280;30041;48.300;16.352;2024-03-06T04:47:04;99882.50;;;22.42;42.07
43312;BME280;30041;48.300;16.352;2024-03-06T04:49:33;99897.84;;;22.41;42.34
43312;BME280;30041;48.300;16.352;2024-03-06T04:51:59;99898.69;;;22.42;42.34
43312;BME280;30041;48.300;16.352;2024-03-06T04:54:24;99895.16;;;22.41;42.16
43312;BME280;30041;48.300;16.352;2024-03-06T04:56:51;99897.84;;;22.41;42.36
43312;BME280;30041;48.300;16.352;2024-03-06T04:59:17;99895.16;;;22.41;42.50
43312;BME280;30041;48.300;16.352;2024-03-06T05:01:43;99902.22;;;22.42;42.22
43312;BME280;30041;48.300;16.352;2024-03-06T05:04:09;99899.50;;;22.42;42.30
43312;BME280;30041;48.300;16.352;2024-03-06T05:06:36;99900.31;;;22.43;42.24
43312;BME280;30041;48.300;16.352;2024-03-06T05:09:02;99896.81;;;22.42;42.42
43312;BME280;30041;48.300;16.352;2024-03-06T05:11:28;99911.13;;;22.43;42.17
43312;BME280;30041;48.300;16.352;2024-03-06T05:13:54;99905.97;;;22.41;42.30
43312;BME280;30041;48.300;16.352;2024-03-06T05:16:23;99902.22;;;22.42;42.40
43312;BME280;30041;48.300;16.352;2024-03-06T05:18:49;99907.63;;;22.42;42.50
43312;BME280;30041;48.300;16.352;2024-03-06T05:21:15;99913.00;;;22.42;42.45
43312;BME280;30041;48.300;16.352;2024-03-06T05:23:41;99908.44;;;22.43;42.45
43312;BME280;30041;48.300;16.352;2024-03-06T05:26:07;99911.13;;;22.43;42.41
43312;BME280;30041;48.300;16.352;2024-03-06T05:28:37;99909.25;;;22.43;42.36
43312;BME280;30041;48.300;16.352;2024-03-06T05:31:18;99910.31;;;22.42;42.45
43312;BME280;30041;48.300;16.352;2024-03-06T05:33:47;99916.53;;;22.43;42.58
43312;BME280;30041;48.300;16.352;2024-03-06T05:36:16;99905.72;;;22.43;42.18
43312;BME280;30041;48.300;16.352;2024-03-06T05:38:42;99910.31;;;22.42;42.49
43312;BME280;30041;48.300;16.352;2024-03-06T05:41:08;99910.91;;;22.44;42.41
43312;BME280;30041;48.300;16.352;2024-03-06T05:43:34;99914.66;;;22.43;42.33
43312;BME280;30041;48.300;16.352;2024-03-06T05:46:00;99905.72;;;22.43;42.23
43312;BME280;30041;48.300;16.352;2024-03-06T05:48:35;99913.81;;;22.43;42.47
43312;BME280;30041;48.300;16.352;2024-03-06T05:51:02;99911.94;;;22.43;42.31
43312;BME280;30041;48.300;16.352;2024-03-06T05:53:27;99916.53;;;22.43;42.55
43312;BME280;30041;48.300;16.352;2024-03-06T05:55:54;99920.03;;;22.43;42.42
43312;BME280;30041;48.300;16.352;2024-03-06T05:58:19;99916.31;;;22.44;42.43
43312;BME280;30041;48.300;16.352;2024-03-06T06:00:45;99925.44;;;22.43;42.22
43312;BME280;30041;48.300;16.352;2024-03-06T06:03:11;99928.16;;;22.43;42.46
43312;BME280;30041;48.300;16.352;2024-03-06T06:05:40;99928.16;;;22.43;42.48
43312;BME280;30041;48.300;16.352;2024-03-06T06:08:06;99932.50;;;22.44;42.48
43312;BME280;30041;48.300;16.352;2024-03-06T06:10:32;99930.03;;;22.43;42.31
43312;BME280;30041;48.300;16.352;2024-03-06T06:12:58;99938.94;;;22.43;42.30
43312;BME280;30041;48.300;16.352;2024-03-06T06:15:27;99938.13;;;22.43;42.36
43312;BME280;30041;48.300;16.352;2024-03-06T06:17:53;99943.31;;;22.44;42.16
43312;BME280;30041;48.300;16.352;2024-03-06T06:20:20;99942.47;;;22.44;42.42
43312;BME280;30041;48.300;16.352;2024-03-06T06:22:46;99936.25;;;22.43;42.24
43312;BME280;30041;48.300;16.352;2024-03-06T06:25:11;99949.53;;;22.45;42.46
43312;BME280;30041;48.300;16.352;2024-03-06T06:27:38;99948.72;;;22.44;42.29
43312;BME280;30041;48.300;16.352;2024-03-06T06:30:07;99950.34;;;22.45;42.13
43312;BME280;30041;48.300;16.352;2024-03-06T06:32:34;99952.22;;;22.45;42.47
43312;BME280;30041;48.300;16.352;2024-03-06T06:35:06;99954.94;;;22.45;42.40
43312;BME280;30041;48.300;16.352;2024-03-06T06:37:32;99953.03;;;22.45;42.32
43312;BME280;30041;48.300;16.352;2024-03-06T06:39:59;99960.31;;;22.45;42.47
43312;BME280;30041;48.300;16.352;2024-03-06T06:42:25;99962.81;;;22.46;42.28
43312;BME280;30041;48.300;16.352;2024-03-06T06:44:51;99961.16;;;22.45;42.46
43312;BME280;30041;48.300;16.352;2024-03-06T06:47:17;99960.09;;;22.46;42.45
43312;BME280;30041;48.300;16.352;2024-03-06T06:49:46;99957.41;;;22.46;42.47
43312;BME280;30041;48.300;16.352;2024-03-06T06:52:12;99955.75;;;22.45;42.16
43312;BME280;30041;48.300;16.352;2024-03-06T06:54:38;99960.09;;;22.46;42.28
43312;BME280;30041;48.300;16.352;2024-03-06T06:57:04;99962.81;;;22.46;42.28
43312;BME280;30041;48.300;16.352;2024-03-06T06:59:30;99956.31;;;22.47;42.12
43312;BME280;30041;48.300;16.352;2024-03-06T07:01:56;99960.91;;;22.47;42.52
43312;BME280;30041;48.300;16.352;2024-03-06T07:04:22;99962.81;;;22.46;42.33
43312;BME280;30041;48.300;16.352;2024-03-06T07:06:48;99964.44;;;22.47;42.58
43312;BME280;30041;48.300;16.352;2024-03-06T07:09:14;99962.81;;;22.46;42.41
43312;BME280;30041;48.300;16.352;2024-03-06T07:11:40;99962.53;;;22.48;42.40
43312;BME280;30041;48.300;16.352;2024-03-06T07:14:08;99964.44;;;22.47;42.25
43312;BME280;30041;48.300;16.352;2024-03-06T07:16:41;99963.38;;;22.48;42.42
43312;BME280;30041;48.300;16.352;2024-03-06T07:19:10;99967.13;;;22.47;42.24
43312;BME280;30041;48.300;16.352;2024-03-06T07:21:39;99979.59;;;22.48;42.21
43312;BME280;30041;48.300;16.352;2024-03-06T07:24:05;99972.53;;;22.47;42.34
43312;BME280;30041;48.300;16.352;2024-03-06T07:26:34;99976.91;;;22.48;42.45
43312;BME280;30041;48.300;16.352;2024-03-06T07:29:00;99973.94;;;22.50;42.42
43312;BME280;30041;48.300;16.352;2024-03-06T07:31:27;99976.03;;;22.48;42.42
43312;BME280;30041;48.300;16.352;2024-03-06T07:33:53;99976.91;;;22.48;42.51
43312;BME280;30041;48.300;16.352;2024-03-06T07:38:45;99993.09;;;22.48;42.23
43312;BME280;30041;48.300;16.352;2024-03-06T07:41:12;99993.09;;;22.48;42.27
43312;BME280;30041;48.300;16.352;2024-03-06T07:43:38;99990.41;;;22.48;42.42
43312;BME280;30041;48.300;16.352;2024-03-06T07:48:30;99998.25;;;22.50;42.36
43312;BME280;30041;48.300;16.352;2024-03-06T07:50:56;99992.84;;;22.50;42.17
43312;BME280;30041;48.300;16.352;2024-03-06T07:53:21;99998.50;;;22.48;42.04
43312;BME280;30041;48.300;16.352;2024-03-06T07:55:51;99999.06;;;22.50;42.16
43312;BME280;30041;48.300;16.352;2024-03-06T08:00:42;100001.19;;;22.48;42.10
43312;BME280;30041;48.300;16.352;2024-03-06T08:08:03;100009.88;;;22.50;42.31
43312;BME280;30041;48.300;16.352;2024-03-06T08:10:30;99997.44;;;22.49;42.26
43312;BME280;30041;48.300;16.352;2024-03-06T08:15:21;100001.75;;;22.50;42.11
43312;BME280;30041;48.300;16.352;2024-03-06T08:17:50;99999.06;;;22.50;42.31
43312;BME280;30041;48.300;16.352;2024-03-06T08:20:16;100000.94;;;22.50;42.15
43312;BME280;30041;48.300;16.352;2024-03-06T08:22:42;99999.06;;;22.50;42.34
43312;BME280;30041;48.300;16.352;2024-03-06T08:25:10;99999.06;;;22.50;42.08
43312;BME280;30041;48.300;16.352;2024-03-06T08:27:40;100004.47;;;22.50;42.16
43312;BME280;30041;48.300;16.352;2024-03-06T08:30:08;100003.41;;;22.51;42.23
43312;BME280;30041;48.300;16.352;2024-03-06T08:32:35;100002.59;;;22.51;42.37
43312;BME280;30041;48.300;16.352;2024-03-06T08:35:05;100007.16;;;22.50;42.17
43312;BME280;30041;48.300;16.352;2024-03-06T08:37:32;100008.81;;;22.51;42.38
43312;BME280;30041;48.300;16.352;2024-03-06T08:40:01;100009.88;;;22.50;42.18
43312;BME280;30041;48.300;16.352;2024-03-06T08:42:31;100011.53;;;22.51;42.23
43312;BME280;30041;48.300;16.352;2024-03-06T08:44:56;100014.22;;;22.51;42.18
43312;BME280;30041;48.300;16.352;2024-03-06T08:47:23;100011.53;;;22.51;42.13
43312;BME280;30041;48.300;16.352;2024-03-06T08:49:49;100013.16;;;22.52;42.15
43312;BME280;30041;48.300;16.352;2024-03-06T08:52:15;100008.00;;;22.51;42.38
43312;BME280;30041;48.300;16.352;2024-03-06T08:54:41;100010.44;;;22.52;42.13
43312;BME280;30041;48.300;16.352;2024-03-06T08:57:07;100009.63;;;22.52;42.53
43312;BME280;30041;48.300;16.352;2024-03-06T08:59:33;100000.72;;;22.51;42.35
43312;BME280;30041;48.300;16.352;2024-03-06T09:02:14;100005.06;;;22.52;42.37
43312;BME280;30041;48.300;16.352;2024-03-06T09:04:41;100008.59;;;22.53;42.41
43312;BME280;30041;48.300;16.352;2024-03-06T09:07:07;100002.34;;;22.52;42.35
43312;BME280;30041;48.300;16.352;2024-03-06T09:09:34;100005.06;;;22.52;42.23
43312;BME280;30041;48.300;16.352;2024-03-06T09:12:01;100002.34;;;22.52;42.25
43312;BME280;30041;48.300;16.352;2024-03-06T09:14:35;100001.53;;;22.52;42.35
43312;BME280;30041;48.300;16.352;2024-03-06T09:17:11;99999.66;;;22.52;42.16
43312;BME280;30041;48.300;16.352;2024-03-06T09:19:41;99999.66;;;22.52;42.37
43312;BME280;30041;48.300;16.352;2024-03-06T09:22:07;100003.19;;;22.53;42.20
43312;BME280;30041;48.300;16.352;2024-03-06T09:24:34;99997.78;;;22.53;42.42
43312;BME280;30041;48.300;16.352;2024-03-06T09:27:00;100004.00;;;22.53;42.09
43312;BME280;30041;48.300;16.352;2024-03-06T09:29:29;99997.78;;;22.53;42.36
43312;BME280;30041;48.300;16.352;2024-03-06T09:31:55;100000.50;;;22.53;42.39
43312;BME280;30041;48.300;16.352;2024-03-06T09:34:28;99998.59;;;22.53;42.18
43312;BME280;30041;48.300;16.352;2024-03-06T09:36:58;100002.13;;;22.54;42.29
43312;BME280;30041;48.300;16.352;2024-03-06T09:39:24;99995.91;;;22.53;42.10
43312;BME280;30041;48.300;16.352;2024-03-06T09:41:53;100000.25;;;22.54;42.37
43312;BME280;30041;48.300;16.352;2024-03-06T09:44:20;99998.59;;;22.53;42.15
43312;BME280;30041;48.300;16.352;2024-03-06T09:46:49;99989.69;;;22.53;42.15
43312;BME280;30041;48.300;16.352;2024-03-06T09:49:17;99999.41;;;22.54;42.15
43312;BME280;30041;48.300;16.352;2024-03-06T09:51:47;99993.22;;;22.53;42.41
43312;BME280;30041;48.300;16.352;2024-03-06T09:54:14;99997.53;;;22.54;42.41
43312;BME280;30041;48.300;16.352;2024-03-06T09:56:44;99997.53;;;22.54;42.11
43312;BME280;30041;48.300;16.352;2024-03-06T09:59:10;99992.94;;;22.55;42.08
43312;BME280;30041;48.300;16.352;2024-03-06T10:01:41;99995.66;;;22.55;42.23
43312;BME280;30041;48.300;16.352;2024-03-06T10:04:26;99992.13;;;22.54;42.20
43312;BME280;30041;48.300;16.352;2024-03-06T10:06:58;99992.13;;;22.54;42.38
43312;BME280;30041;48.300;16.352;2024-03-06T10:09:26;99989.22;;;22.56;42.35
43312;BME280;30041;48.300;16.352;2024-03-06T10:11:54;99990.25;;;22.55;42.06
43312;BME280;30041;48.300;16.352;2024-03-06T10:14:20;99986.50;;;22.56;42.08
43312;BME280;30041;48.300;16.352;2024-03-06T10:16:54;99989.22;;;22.56;42.14
43312;BME280;30041;48.300;16.352;2024-03-06T10:19:26;99988.41;;;22.55;42.20
43312;BME280;30041;48.300;16.352;2024-03-06T10:21:53;99990.03;;;22.56;42.28
43312;BME280;30041;48.300;16.352;2024-03-06T10:24:23;99985.44;;;22.57;42.01
43312;BME280;30041;48.300;16.352;2024-03-06T10:26:52;99990.84;;;22.57;42.18
43312;BME280;30041;48.300;16.352;2024-03-06T10:29:18;99997.91;;;22.58;42.01
43312;BME280;30041;48.300;16.352;2024-03-06T10:31:52;99985.44;;;22.57;41.92
43312;BME280;30041;48.300;16.352;2024-03-06T10:34:18;99986.28;;;22.57;42.08
43312;BME280;30041;48.300;16.352;2024-03-06T10:36:45;99983.56;;;22.57;42.26
43312;BME280;30041;48.300;16.352;2024-03-06T10:39:12;99987.91;;;22.58;42.11
43312;BME280;30041;48.300;16.352;2024-03-06T10:41:42;99982.50;;;22.58;42.04
43312;BME280;30041;48.300;16.352;2024-03-06T10:44:12;99988.72;;;22.59;41.92
43312;BME280;30041;48.300;16.352;2024-03-06T10:46:40;99986.88;;;22.59;42.33
43312;BME280;30041;48.300;16.352;2024-03-06T10:49:09;99984.16;;;22.59;42.11
43312;BME280;30041;48.300;16.352;2024-03-06T10:51:36;99981.47;;;22.59;42.23
43312;BME280;30041;48.300;16.352;2024-03-06T10:54:03;99980.38;;;22.61;42.13
43312;BME280;30041;48.300;16.352;2024-03-06T10:56:30;99983.91;;;22.61;42.05
43312;BME280;30041;48.300;16.352;2024-03-06T10:58:57;99976.63;;;22.62;41.91
43312;BME280;30041;48.300;16.352;2024-03-06T11:01:30;99976.63;;;22.62;41.82
43312;BME280;30041;48.300;16.352;2024-03-06T11:03:58;99973.91;;;22.62;42.02
43312;BME280;30041;48.300;16.352;2024-03-06T11:06:26;99974.75;;;22.62;41.74
43312;BME280;30041;48.300;16.352;2024-03-06T11:08:52;99972.28;;;22.61;41.86
43312;BME280;30041;48.300;16.352;2024-03-06T11:11:24;99978.28;;;22.63;41.85
43312;BME280;30041;48.300;16.352;2024-03-06T11:13:54;99972.88;;;22.63;41.83
43312;BME280;30041;48.300;16.352;2024-03-06T11:16:28;99979.09;;;22.63;41.68
43312;BME280;30041;48.300;16.352;2024-03-06T11:19:07;99969.94;;;22.64;41.70
43312;BME280;30041;48.300;16.352;2024-03-06T11:21:34;99971.81;;;22.64;41.74
43312;BME280;30041;48.300;16.352;2024-03-06T11:24:21;99964.78;;;22.63;41.83
43312;BME280;30041;48.300;16.352;2024-03-06T11:26:59;99967.47;;;22.63;41.97
43312;BME280;30041;48.300;16.352;2024-03-06T11:29:28;99961.84;;;22.64;41.66
43312;BME280;30041;48.300;16.352;2024-03-06T11:32:07;99962.66;;;22.65;41.81
43312;BME280;30041;48.300;16.352;2024-03-06T11:34:34;99964.53;;;22.64;42.02
43312;BME280;30041;48.300;16.352;2024-03-06T11:37:05;99954.56;;;22.65;41.73
43312;BME280;30041;48.300;16.352;2024-03-06T11:39:35;99961.00;;;22.64;41.77
43312;BME280;30041;48.300;16.352;2024-03-06T11:42:04;99951.03;;;22.64;41.92
43312;BME280;30041;48.300;16.352;2024-03-06T11:44:34;99949.16;;;22.65;41.80
43312;BME280;30041;48.300;16.352;2024-03-06T11:47:05;99951.84;;;22.65;41.90
43312;BME280;30041;48.300;16.352;2024-03-06T11:49:35;99954.56;;;22.65;42.01
43312;BME280;30041;48.300;16.352;2024-03-06T11:52:06;99954.56;;;22.65;41.73
43312;BME280;30041;48.300;16.352;2024-03-06T11:54:32;99948.34;;;22.64;42.04
43312;BME280;30041;48.300;16.352;2024-03-06T11:57:00;99946.22;;;22.66;41.94
43312;BME280;30041;48.300;16.352;2024-03-06T11:59:30;99942.66;;;22.66;41.74
43312;BME280;30041;48.300;16.352;2024-03-06T12:02:02;99941.84;;;22.65;41.76
43312;BME280;30041;48.300;16.352;2024-03-06T12:04:30;99950.78;;;22.66;41.84
43312;BME280;30041;48.300;16.352;2024-03-06T12:07:00;99941.84;;;22.65;41.95
43312;BME280;30041;48.300;16.352;2024-03-06T12:09:27;99943.75;;;22.65;41.73
43312;BME280;30041;48.300;16.352;2024-03-06T12:11:55;99934.56;;;22.66;41.88
43312;BME280;30041;48.300;16.352;2024-03-06T12:14:21;99941.03;;;22.65;41.88
43312;BME280;30041;48.300;16.352;2024-03-06T12:17:00;99938.34;;;22.65;42.05
43312;BME280;30041;48.300;16.352;2024-03-06T12:19:27;99941.03;;;22.65;41.92
43312;BME280;30041;48.300;16.352;2024-03-06T12:21:54;99939.97;;;22.66;41.92
43312;BME280;30041;48.300;16.352;2024-03-06T12:24:20;99947.25;;;22.65;41.88
43312;BME280;30041;48.300;16.352;2024-03-06T12:26:47;99939.16;;;22.65;42.14
43312;BME280;30041;48.300;16.352;2024-03-06T12:29:28;99935.63;;;22.65;42.07
43312;BME280;30041;48.300;16.352;2024-03-06T12:31:55;99943.75;;;22.65;42.08
43312;BME280;30041;48.300;16.352;2024-03-06T12:34:24;99936.44;;;22.65;41.97
43312;BME280;30041;48.300;16.352;2024-03-06T12:36:53;99933.75;;;22.65;42.05
43312;BME280;30041;48.300;16.352;2024-03-06T12:39:19;99932.94;;;22.65;41.87
43312;BME280;30041;48.300;16.352;2024-03-06T12:41:45;99939.97;;;22.66;41.88
43312;BME280;30041;48.300;16.352;2024-03-06T12:44:12;99932.94;;;22.65;41.91
43312;BME280;30041;48.300;16.352;2024-03-06T12:46:38;99929.16;;;22.66;41.86
43312;BME280;30041;48.300;16.352;2024-03-06T12:49:04;99939.16;;;22.65;41.94
43312;BME280;30041;48.300;16.352;2024-03-06T12:51:31;99932.13;;;22.64;41.84
43312;BME280;30041;48.300;16.352;2024-03-06T12:53:57;99935.63;;;22.65;42.00
43312;BME280;30041;48.300;16.352;2024-03-06T12:56:24;99934.81;;;22.64;41.90
43312;BME280;30041;48.300;16.352;2024-03-06T12:58:51;99938.34;;;22.65;41.89
43312;BME280;30041;48.300;16.352;2024-03-06T13:01:17;99925.66;;;22.65;42.10
43312;BME280;30041;48.300;16.352;2024-03-06T13:03:44;99935.63;;;22.65;42.11
43312;BME280;30041;48.300;16.352;2024-03-06T13:06:09;99927.53;;;22.65;41.95